Time;durP1;ratioP1;P1;durP2;ratioP2;P2;SDS_P1;SDS_P2;PMS_P1;PMS_P2;Temp;Humidity;BMP_temperature;BMP_pressure;BME280_temperature;BME280_humidity;BME280_pressure;Samples;Min_cycle;Max_cycle;Signal;HPM_P1;HPM_P2
2021/03/26 00:06:23;;;;;;;36.70;22.80;;;;;;;;;;4487311;28;20174;-53
2021/03/26 00:08:51;;;;;;;34.50;21.90;;;;;;;;;;4193391;34;20101;-52
2021/03/26 00:11:17;;;;;;;39.53;23.10;;;;;;;;;;4205808;34;20118;-49
2021/03/26 00:13:46;;;;;;;28.33;18.52;;;;;;;;;;4206013;34;20540;-54
2021/03/26 00:16:15;;;;;;;29.10;19.75;;;;;;;;;;4206323;34;20186;-54
2021/03/26 00:18:42;;;;;;;30.55;21.05;;;;;;;;;;4206243;34;20121;-51
2021/03/26 00:21:08;;;;;;;34.05;22.50;;;;;;;;;;4205833;34;20549;-54
2021/03/26 00:23:36;;;;;;;34.60;20.83;;;;;;;;;;4193216;34;20093;-54
2021/03/26 00:26:02;;;;;;;41.08;24.27;;;;;;;;;;4192998;34;20224;-48
2021/03/26 00:28:28;;;;;;;33.05;21.85;;;;;;;;;;4206242;34;20553;-49
2021/03/26 00:30:55;;;;;;;33.13;21.65;;;;;;;;;;4205700;34;20545;-51
2021/03/26 00:33:22;;;;;;;39.05;24.17;;;;;;;;;;4206120;34;20128;-53
2021/03/26 00:35:50;;;;;;;35.80;23.87;;;;;;;;;;4182091;34;20611;-54
2021/03/26 00:38:17;;;;;;;41.40;26.02;;;;;;;;;;4206166;34;20106;-55
2021/03/26 00:40:44;;;;;;;29.05;21.15;;;;;;;;;;4205823;34;20438;-48
2021/03/26 00:43:10;;;;;;;31.65;22.33;;;;;;;;;;4206173;34;20513;-50
2021/03/26 00:45:36;;;;;;;30.83;22.83;;;;;;;;;;4205856;34;20097;-47
2021/03/26 00:48:03;;;;;;;34.25;23.08;;;;;;;;;;4206129;34;20098;-54
2021/03/26 00:50:37;;;;;;;30.40;21.98;;;;;;;;;;4205666;34;20252;-50
2021/03/26 00:53:11;;;;;;;31.40;23.23;;;;;;;;;;4192807;34;20123;-49
2021/03/26 00:55:37;;;;;;;29.67;20.65;;;;;;;;;;4204546;34;20094;-53
2021/03/26 00:58:03;;;;;;;25.83;19.75;;;;;;;;;;4206017;34;20192;-47
2021/03/26 01:00:29;;;;;;;26.02;20.00;;;;;;;;;;4205603;34;20517;-50
2021/03/26 01:02:55;;;;;;;23.30;18.42;;;;;;;;;;4204478;34;20118;-50
2021/03/26 01:05:34;;;;;;;24.75;17.98;;;;;;;;;;4203940;34;20473;-50
2021/03/26 01:08:00;;;;;;;23.52;18.17;;;;;;;;;;4205783;34;20152;-51
2021/03/26 01:10:29;;;;;;;30.17;18.65;;;;;;;;;;4205468;34;20141;-52
2021/03/26 01:12:55;;;;;;;27.62;19.05;;;;;;;;;;4205595;34;20098;-49
2021/03/26 01:15:25;;;;;;;27.15;18.25;;;;;;;;;;4192701;34;20237;-46
2021/03/26 01:17:51;;;;;;;27.30;19.70;;;;;;;;;;4181530;34;20620;-51
2021/03/26 01:20:21;;;;;;;27.17;18.62;;;;;;;;;;4205511;34;20561;-49
2021/03/26 01:22:47;;;;;;;26.02;18.77;;;;;;;;;;4205530;34;20117;-47
2021/03/26 01:25:19;;;;;;;24.77;18.25;;;;;;;;;;4205730;34;20205;-48
2021/03/26 01:27:45;;;;;;;23.23;17.77;;;;;;;;;;4205711;34;20093;-46
2021/03/26 01:30:12;;;;;;;28.08;20.27;;;;;;;;;;4205411;34;20104;-46
2021/03/26 01:32:38;;;;;;;30.10;21.73;;;;;;;;;;4192910;34;20540;-50
2021/03/26 01:35:05;;;;;;;23.42;18.10;;;;;;;;;;4192590;34;20649;-48
2021/03/26 01:37:32;;;;;;;25.75;19.73;;;;;;;;;;4205683;34;20134;-49
2021/03/26 01:39:58;;;;;;;17.45;15.57;;;;;;;;;;4205509;34;20121;-48
2021/03/26 01:42:26;;;;;;;18.92;15.70;;;;;;;;;;4205627;34;20549;-50
2021/03/26 01:44:52;;;;;;;18.70;15.40;;;;;;;;;;4192699;34;20121;-51
2021/03/26 01:47:18;;;;;;;15.80;13.82;;;;;;;;;;4205656;34;20383;-53
2021/03/26 01:49:45;;;;;;;15.88;13.18;;;;;;;;;;4205496;34;20209;-52
2021/03/26 01:52:11;;;;;;;13.18;11.80;;;;;;;;;;4205260;34;20125;-53
2021/03/26 01:54:37;;;;;;;13.85;12.45;;;;;;;;;;4192620;34;20129;-50
2021/03/26 01:57:03;;;;;;;15.02;13.00;;;;;;;;;;4192625;34;20216;-50
2021/03/26 01:59:29;;;;;;;15.02;12.02;;;;;;;;;;4205179;34;20547;-49
2021/03/26 02:02:01;;;;;;;14.48;12.77;;;;;;;;;;4192539;34;20102;-52
2021/03/26 02:04:34;;;;;;;12.32;11.12;;;;;;;;;;4204616;34;20105;-50
2021/03/26 02:07:00;;;;;;;14.05;11.68;;;;;;;;;;4192508;34;20220;-48
2021/03/26 02:09:35;;;;;;;15.05;12.68;;;;;;;;;;4192392;34;20149;-52
2021/03/26 02:12:04;;;;;;;13.90;12.32;;;;;;;;;;4180975;34;20110;-53
2021/03/26 02:14:58;;;;;;;13.27;11.55;;;;;;;;;;4205170;34;20108;-53
2021/03/26 02:17:27;;;;;;;12.85;11.48;;;;;;;;;;4190965;34;20186;-54
2021/03/26 02:20:23;;;;;;;13.82;11.75;;;;;;;;;;4192334;34;20337;-52
2021/03/26 02:22:49;;;;;;;12.45;11.15;;;;;;;;;;4188726;34;20135;-55
2021/03/26 02:25:19;;;;;;;12.63;10.93;;;;;;;;;;4205013;34;20137;-52
2021/03/26 02:27:44;;;;;;;14.70;12.35;;;;;;;;;;4192401;34;20538;-48
2021/03/26 02:30:22;;;;;;;12.75;11.43;;;;;;;;;;4204774;34;20149;-49
2021/03/26 02:32:49;;;;;;;14.23;12.65;;;;;;;;;;4204918;34;20128;-47
2021/03/26 02:35:16;;;;;;;13.40;12.00;;;;;;;;;;4204975;34;20525;-53
2021/03/26 02:37:48;;;;;;;15.75;12.90;;;;;;;;;;4204876;34;20189;-45
2021/03/26 02:40:47;;;;;;;12.68;11.32;;;;;;;;;;4204844;34;20128;-51
2021/03/26 02:43:35;;;;;;;15.77;13.00;;;;;;;;;;4181225;34;20200;-52
2021/03/26 02:46:04;;;;;;;13.27;11.63;;;;;;;;;;4193759;34;20201;-54
2021/03/26 02:48:47;;;;;;;14.80;12.15;;;;;;;;;;4180986;34;20141;-49
2021/03/26 02:51:28;;;;;;;15.35;12.57;;;;;;;;;;4191957;34;20539;-47
2021/03/26 02:54:06;;;;;;;20.52;13.88;;;;;;;;;;4191946;34;20132;-52
2021/03/26 02:56:38;;;;;;;16.12;12.95;;;;;;;;;;4192476;34;20125;-46
2021/03/26 02:59:18;;;;;;;14.65;12.30;;;;;;;;;;4180626;34;20098;-53
2021/03/26 03:01:46;;;;;;;16.00;12.27;;;;;;;;;;4192244;34;20530;-50
2021/03/26 03:04:15;;;;;;;13.18;11.85;;;;;;;;;;4180328;34;20450;-45
2021/03/26 03:06:47;;;;;;;14.80;12.80;;;;;;;;;;4204577;34;20098;-45
2021/03/26 03:09:13;;;;;;;14.80;12.68;;;;;;;;;;4192183;34;20090;-46
2021/03/26 03:12:06;;;;;;;15.27;12.00;;;;;;;;;;4180370;34;20129;-52
2021/03/26 03:15:02;;;;;;;13.73;11.82;;;;;;;;;;4204781;34;20133;-60
2021/03/26 03:17:36;;;;;;;14.90;12.45;;;;;;;;;;4195914;34;20201;-48
2021/03/26 03:20:36;;;;;;;13.38;12.07;;;;;;;;;;4193899;34;20166;-47
2021/03/26 03:23:16;;;;;;;16.23;13.93;;;;;;;;;;4206866;34;20098;-51
2021/03/26 03:25:48;;;;;;;14.68;12.93;;;;;;;;;;4193477;34;20120;-50
2021/03/26 03:28:27;;;;;;;15.63;13.95;;;;;;;;;;4181277;34;20643;-47
2021/03/26 03:31:17;;;;;;;14.52;12.70;;;;;;;;;;4204294;34;20128;-51
2021/03/26 03:34:21;;;;;;;15.43;13.38;;;;;;;;;;4175750;34;20230;-46
2021/03/26 03:36:50;;;;;;;15.35;13.05;;;;;;;;;;4204181;34;20541;-47
2021/03/26 03:39:27;;;;;;;13.43;12.10;;;;;;;;;;4204350;34;20494;-49
2021/03/26 03:42:24;;;;;;;14.77;12.75;;;;;;;;;;4192015;34;20126;-47
2021/03/26 03:45:20;;;;;;;13.18;11.68;;;;;;;;;;4195034;34;20129;-49
2021/03/26 03:47:50;;;;;;;13.93;12.20;;;;;;;;;;4193708;34;20108;-49
2021/03/26 03:50:29;;;;;;;12.50;11.20;;;;;;;;;;4206180;34;20130;-51
2021/03/26 03:52:58;;;;;;;12.07;10.80;;;;;;;;;;4193470;34;20145;-48
2021/03/26 03:55:34;;;;;;;13.88;11.15;;;;;;;;;;4206205;34;20521;-55
2021/03/26 03:58:17;;;;;;;12.80;11.45;;;;;;;;;;4193739;34;20391;-46
2021/03/26 04:01:07;;;;;;;13.90;11.73;;;;;;;;;;4206131;34;20225;-48
2021/03/26 04:03:42;;;;;;;14.07;10.40;;;;;;;;;;4182726;34;20106;-48
2021/03/26 04:06:21;;;;;;;12.03;10.83;;;;;;;;;;4206020;34;20179;-49
2021/03/26 04:08:51;;;;;;;15.65;10.82;;;;;;;;;;4193325;34;20184;-49
2021/03/26 04:11:22;;;;;;;13.25;11.90;;;;;;;;;;4182072;34;20116;-50
2021/03/26 04:13:50;;;;;;;15.95;12.32;;;;;;;;;;4193634;34;20572;-51
2021/03/26 04:16:19;;;;;;;14.55;12.25;;;;;;;;;;4193345;34;20144;-47
2021/03/26 04:18:50;;;;;;;13.70;11.93;;;;;;;;;;4181915;34;20177;-47
2021/03/26 04:21:24;;;;;;;14.52;11.12;;;;;;;;;;4193472;34;20174;-47
2021/03/26 04:23:56;;;;;;;14.60;11.52;;;;;;;;;;4182059;34;20110;-47
2021/03/26 04:26:37;;;;;;;14.13;12.68;;;;;;;;;;4205439;34;20100;-47
2021/03/26 04:29:21;;;;;;;14.38;11.43;;;;;;;;;;4193552;34;20530;-49
2021/03/26 04:31:50;;;;;;;12.55;11.25;;;;;;;;;;4194282;34;20143;-50
2021/03/26 04:34:16;;;;;;;17.20;12.68;;;;;;;;;;4182050;34;20117;-48
2021/03/26 04:36:50;;;;;;;15.90;12.85;;;;;;;;;;4192991;34;20185;-49
2021/03/26 04:39:21;;;;;;;15.57;13.80;;;;;;;;;;4182176;34;20572;-48
2021/03/26 04:42:02;;;;;;;16.42;12.43;;;;;;;;;;4181679;34;20132;-52
2021/03/26 04:44:47;;;;;;;14.80;12.23;;;;;;;;;;4193228;34;20117;-51
2021/03/26 04:47:26;;;;;;;13.62;11.77;;;;;;;;;;4193054;34;20215;-51
2021/03/26 04:50:04;;;;;;;16.17;13.57;;;;;;;;;;4181773;34;20132;-54
2021/03/26 04:52:33;;;;;;;13.75;12.15;;;;;;;;;;4193300;34;20101;-49
2021/03/26 04:55:18;;;;;;;17.92;13.05;;;;;;;;;;4205812;34;20533;-49
2021/03/26 04:57:51;;;;;;;16.55;12.93;;;;;;;;;;4192942;34;20106;-47
2021/03/26 05:00:21;;;;;;;19.30;13.43;;;;;;;;;;4192859;34;20559;-51
2021/03/26 05:02:52;;;;;;;17.12;13.30;;;;;;;;;;4181627;34;20120;-50
2021/03/26 05:05:18;;;;;;;15.35;13.25;;;;;;;;;;4181820;34;20217;-49
2021/03/26 05:07:45;;;;;;;16.50;14.07;;;;;;;;;;4181380;34;20137;-51
2021/03/26 05:10:15;;;;;;;14.27;11.95;;;;;;;;;;4181237;34;20121;-50
2021/03/26 05:12:44;;;;;;;19.27;13.43;;;;;;;;;;4181558;34;20113;-53
2021/03/26 05:15:17;;;;;;;19.73;13.73;;;;;;;;;;4181674;34;20542;-48
2021/03/26 05:17:55;;;;;;;21.12;13.70;;;;;;;;;;4181810;34;20129;-51
2021/03/26 05:20:41;;;;;;;20.58;14.02;;;;;;;;;;4192876;34;20114;-52
2021/03/26 05:23:08;;;;;;;17.12;13.20;;;;;;;;;;4194657;34;20453;-51
2021/03/26 05:25:39;;;;;;;18.80;13.02;;;;;;;;;;4192643;34;20541;-52
2021/03/26 05:28:07;;;;;;;25.42;13.40;;;;;;;;;;4205484;34;20109;-50
2021/03/26 05:30:39;;;;;;;16.40;11.12;;;;;;;;;;4192672;34;20122;-48
2021/03/26 05:33:26;;;;;;;19.62;13.38;;;;;;;;;;4182048;34;20129;-49
2021/03/26 05:35:55;;;;;;;32.95;15.55;;;;;;;;;;4182313;34;20098;-51
2021/03/26 05:38:28;;;;;;;26.15;16.70;;;;;;;;;;4205476;34;20122;-50
2021/03/26 05:40:57;;;;;;;24.67;16.20;;;;;;;;;;4181456;34;20113;-53
2021/03/26 05:43:32;;;;;;;25.55;16.77;;;;;;;;;;4192864;34;20201;-56
2021/03/26 05:46:02;;;;;;;29.92;17.80;;;;;;;;;;4192814;34;20122;-51
2021/03/26 05:48:46;;;;;;;23.65;15.35;;;;;;;;;;4192458;34;20137;-52
2021/03/26 05:51:33;;;;;;;18.37;12.75;;;;;;;;;;4205142;34;20130;-53
2021/03/26 05:54:27;;;;;;;19.12;12.07;;;;;;;;;;4205558;34;20098;-50
2021/03/26 05:57:00;;;;;;;22.52;11.40;;;;;;;;;;4205215;34;20509;-50
2021/03/26 05:59:52;;;;;;;17.90;10.50;;;;;;;;;;4192650;34;20593;-52
2021/03/26 06:02:36;;;;;;;20.85;12.80;;;;;;;;;;4202385;34;20109;-48
2021/03/26 06:05:20;;;;;;;21.25;14.87;;;;;;;;;;4205248;34;20768;-53
2021/03/26 06:08:08;;;;;;;16.70;11.27;;;;;;;;;;4205140;34;20517;-46
2021/03/26 06:10:40;;;;;;;16.27;9.82;;;;;;;;;;4205068;34;20149;-53
2021/03/26 06:13:24;;;;;;;17.40;10.38;;;;;;;;;;4204987;34;20543;-52
2021/03/26 06:16:00;;;;;;;16.92;10.55;;;;;;;;;;4204827;34;20461;-50
2021/03/26 06:18:45;;;;;;;19.60;11.82;;;;;;;;;;4192428;34;20528;-55
2021/03/26 06:21:50;;;;;;;22.50;13.10;;;;;;;;;;4204905;34;20201;-54
2021/03/26 06:24:40;;;;;;;21.40;12.63;;;;;;;;;;4169829;34;20209;-51
2021/03/26 06:27:21;;;;;;;15.90;12.50;;;;;;;;;;4192802;34;20113;-50
2021/03/26 06:29:56;;;;;;;18.87;11.60;;;;;;;;;;4205008;34;20576;-47
2021/03/26 06:32:43;;;;;;;19.20;11.73;;;;;;;;;;4205008;34;20520;-49
2021/03/26 06:35:09;;;;;;;21.25;12.15;;;;;;;;;;4204686;34;20106;-51
2021/03/26 06:38:00;;;;;;;14.50;10.82;;;;;;;;;;4204814;34;20220;-48
2021/03/26 06:40:51;;;;;;;16.37;11.63;;;;;;;;;;4204812;34;20114;-47
2021/03/26 06:43:32;;;;;;;16.67;11.50;;;;;;;;;;4204807;34;20113;-46
2021/03/26 06:45:57;;;;;;;13.52;10.20;;;;;;;;;;4203211;34;20465;-50
2021/03/26 06:48:39;;;;;;;15.30;9.82;;;;;;;;;;4204905;34;20122;-53
2021/03/26 06:51:23;;;;;;;14.45;9.35;;;;;;;;;;4204239;34;20545;-52
2021/03/26 06:54:00;;;;;;;14.48;10.40;;;;;;;;;;4191744;34;20100;-51
2021/03/26 06:57:06;;;;;;;12.15;9.65;;;;;;;;;;4180272;34;20148;-51
2021/03/26 06:59:57;;;;;;;10.43;8.07;;;;;;;;;;4184108;34;20178;-52
2021/03/26 07:02:44;;;;;;;11.00;7.60;;;;;;;;;;4204674;34;20524;-48
2021/03/26 07:05:14;;;;;;;8.35;6.60;;;;;;;;;;4204303;34;20133;-50
2021/03/26 07:08:07;;;;;;;8.32;6.78;;;;;;;;;;4204536;34;20121;-50
2021/03/26 07:11:04;;;;;;;9.65;6.65;;;;;;;;;;4191706;34;20209;-51
2021/03/26 07:13:54;;;;;;;10.57;6.12;;;;;;;;;;4204421;34;20113;-48
2021/03/26 07:16:56;;;;;;;8.02;6.22;;;;;;;;;;4204727;34;20221;-50
2021/03/26 07:19:25;;;;;;;7.97;5.80;;;;;;;;;;4193617;34;20101;-49
2021/03/26 07:22:20;;;;;;;8.93;6.35;;;;;;;;;;4204244;34;20090;-51
2021/03/26 07:25:20;;;;;;;8.20;6.05;;;;;;;;;;4178880;34;20119;-50
2021/03/26 07:27:52;;;;;;;5.57;4.80;;;;;;;;;;4204295;34;20109;-52
2021/03/26 07:30:31;;;;;;;6.50;5.22;;;;;;;;;;4191755;34;20123;-47
2021/03/26 07:33:18;;;;;;;7.95;5.50;;;;;;;;;;4191445;34;20117;-48
2021/03/26 07:35:52;;;;;;;8.10;5.45;;;;;;;;;;4204188;34;20141;-49
2021/03/26 07:38:56;;;;;;;10.27;5.28;;;;;;;;;;4191609;34;20204;-49
2021/03/26 07:41:35;;;;;;;8.35;5.40;;;;;;;;;;4204254;34;20449;-49
2021/03/26 07:44:28;;;;;;;6.50;5.62;;;;;;;;;;4204142;34;20123;-52
2021/03/26 07:47:36;;;;;;;8.15;6.35;;;;;;;;;;4191410;34;20112;-53
2021/03/26 07:50:09;;;;;;;8.68;6.47;;;;;;;;;;4203725;34;20129;-54
2021/03/26 07:52:46;;;;;;;9.05;6.57;;;;;;;;;;4191430;34;20113;-54
2021/03/26 07:55:39;;;;;;;12.02;6.87;;;;;;;;;;4179972;34;20098;-48
2021/03/26 07:58:39;;;;;;;8.38;6.97;;;;;;;;;;4196704;34;20208;-50
2021/03/26 08:01:29;;;;;;;11.23;7.97;;;;;;;;;;4203720;34;20661;-48
2021/03/26 08:04:04;;;;;;;16.77;9.35;;;;;;;;;;4206299;34;20601;-52
2021/03/26 08:06:45;;;;;;;9.05;8.07;;;;;;;;;;4193166;34;20249;-52
2021/03/26 08:09:49;;;;;;;13.55;8.07;;;;;;;;;;4206019;34;20126;-52
2021/03/26 08:12:32;;;;;;;14.90;8.48;;;;;;;;;;4205975;34;20105;-50
2021/03/26 08:15:37;;;;;;;14.07;8.85;;;;;;;;;;4193045;34;20094;-50
2021/03/26 08:18:18;;;;;;;10.98;7.45;;;;;;;;;;4177054;34;20141;-50
2021/03/26 08:20:53;;;;;;;9.50;7.05;;;;;;;;;;4206031;34;20105;-48
2021/03/26 08:23:30;;;;;;;10.20;8.23;;;;;;;;;;4205962;34;20224;-50
2021/03/26 08:26:08;;;;;;;11.75;8.90;;;;;;;;;;4193185;34;20106;-54
2021/03/26 08:29:24;;;;;;;10.63;8.52;;;;;;;;;;4206318;34;20540;-47
2021/03/26 08:32:09;;;;;;;11.52;8.52;;;;;;;;;;4194558;34;20460;-51
2021/03/26 08:34:47;;;;;;;10.40;8.77;;;;;;;;;;4194946;34;20505;-53
2021/03/26 08:37:22;;;;;;;11.40;7.82;;;;;;;;;;4205925;34;20118;-50
2021/03/26 08:39:49;;;;;;;7.70;6.72;;;;;;;;;;4205742;34;20129;-54
2021/03/26 08:42:29;;;;;;;14.95;7.32;;;;;;;;;;4193263;34;20502;-54
2021/03/26 08:45:19;;;;;;;10.43;7.90;;;;;;;;;;4181936;34;20505;-52
2021/03/26 08:48:05;;;;;;;9.63;8.48;;;;;;;;;;4170562;34;20129;-48
2021/03/26 08:50:49;;;;;;;;;;;;;;;;;;4194653;34;20205;-54
2021/03/26 08:53:57;;;;;;;22.27;10.90;;;;;;;;;;4205852;34;19988;-51
2021/03/26 08:57:17;;;;;;;19.98;11.23;;;;;;;;;;4170190;34;20142;-48
2021/03/26 09:00:04;;;;;;;18.77;11.00;;;;;;;;;;4148599;34;20142;-49
2021/03/26 09:02:57;;;;;;;13.23;7.10;;;;;;;;;;4170504;34;20183;-47
2021/03/26 09:05:57;;;;;;;16.65;10.25;;;;;;;;;;4205482;34;20114;-53
2021/03/26 09:09:04;;;;;;;9.52;7.10;;;;;;;;;;4205739;34;20108;-51
2021/03/26 09:11:39;;;;;;;8.07;6.80;;;;;;;;;;4205406;34;20124;-47
2021/03/26 09:14:32;;;;;;;10.15;5.60;;;;;;;;;;4205419;34;20085;-50
2021/03/26 09:17:00;;;;;;;8.80;5.40;;;;;;;;;;4198298;34;20149;-47
2021/03/26 09:19:36;;;;;;;7.35;5.00;;;;;;;;;;4181352;34;20113;-51
2021/03/26 09:22:30;;;;;;;7.97;4.97;;;;;;;;;;4192746;34;20117;-49
2021/03/26 09:25:07;;;;;;;10.00;4.80;;;;;;;;;;4205438;34;20185;-51
2021/03/26 09:27:39;;;;;;;7.55;4.72;;;;;;;;;;4192716;34;20210;-54
2021/03/26 09:30:20;;;;;;;5.82;5.05;;;;;;;;;;4181216;34;20129;-52
2021/03/26 09:32:53;;;;;;;9.10;5.32;;;;;;;;;;4170154;34;20141;-52
2021/03/26 09:35:21;;;;;;;8.15;4.60;;;;;;;;;;4192757;34;20114;-51
2021/03/26 09:37:51;;;;;;;7.47;4.53;;;;;;;;;;4192495;34;20102;-53
2021/03/26 09:40:34;;;;;;;9.23;4.65;;;;;;;;;;4192638;34;20113;-53
2021/03/26 09:43:05;;;;;;;8.40;5.00;;;;;;;;;;4205669;34;20091;-52
2021/03/26 09:45:38;;;;;;;6.93;4.75;;;;;;;;;;4192685;34;20115;-54
2021/03/26 09:48:41;;;;;;;8.23;5.57;;;;;;;;;;4192750;34;20533;-53
2021/03/26 09:51:25;;;;;;;6.75;4.90;;;;;;;;;;4205303;34;20123;-55
2021/03/26 09:53:52;;;;;;;7.12;5.37;;;;;;;;;;4205246;34;20130;-53
2021/03/26 09:56:59;;;;;;;7.12;4.43;;;;;;;;;;4205336;34;20968;-50
2021/03/26 09:59:44;;;;;;;8.15;5.00;;;;;;;;;;4182360;34;20561;-54
2021/03/26 10:02:10;;;;;;;12.27;5.47;;;;;;;;;;4205157;34;20170;-50
2021/03/26 10:04:50;;;;;;;8.63;5.45;;;;;;;;;;4205268;34;20110;-52
2021/03/26 10:07:29;;;;;;;9.75;5.35;;;;;;;;;;4181151;34;20132;-49
2021/03/26 10:12:53;;;;;;;6.85;4.70;;;;;;;;;;4202924;34;20285;-50
2021/03/26 10:15:49;;;;;;;7.68;4.57;;;;;;;;;;4181221;34;20214;-50
2021/03/26 10:18:19;;;;;;;5.85;4.70;;;;;;;;;;4191465;34;20506;-48
2021/03/26 10:20:49;;;;;;;8.40;5.18;;;;;;;;;;4204828;34;20554;-55
2021/03/26 10:23:54;;;;;;;8.13;4.85;;;;;;;;;;4204931;34;20537;-54
2021/03/26 10:26:41;;;;;;;7.20;5.12;;;;;;;;;;4191749;34;20126;-54
2021/03/26 10:29:18;;;;;;;5.72;5.05;;;;;;;;;;4205251;34;20540;-48
2021/03/26 10:31:46;;;;;;;7.03;4.70;;;;;;;;;;4205015;34;20493;-49
2021/03/26 10:34:16;;;;;;;6.72;5.03;;;;;;;;;;4192181;34;20438;-49
2021/03/26 10:37:22;;;;;;;9.02;5.00;;;;;;;;;;4181173;34;20181;-49
2021/03/26 10:40:00;;;;;;;7.78;5.15;;;;;;;;;;4193771;34;20541;-52
2021/03/26 10:42:41;;;;;;;7.00;4.50;;;;;;;;;;4204862;34;20156;-53
2021/03/26 10:45:16;;;;;;;9.20;5.25;;;;;;;;;;4204710;34;20193;-47
2021/03/26 10:47:51;;;;;;;9.75;4.45;;;;;;;;;;4204798;34;20441;-52
2021/03/26 10:50:27;;;;;;;7.45;4.53;;;;;;;;;;4204762;34;20141;-54
2021/03/26 10:53:16;;;;;;;8.63;4.80;;;;;;;;;;4204633;34;20194;-47
2021/03/26 10:55:49;;;;;;;6.30;3.90;;;;;;;;;;4191611;34;20500;-53
2021/03/26 10:58:27;;;;;;;5.60;4.35;;;;;;;;;;4192053;34;20112;-54
2021/03/26 11:01:16;;;;;;;11.18;5.65;;;;;;;;;;4204452;34;20093;-50
2021/03/26 11:03:53;;;;;;;6.07;4.47;;;;;;;;;;4192117;34;20105;-51
2021/03/26 11:06:56;;;;;;;4.43;2.92;;;;;;;;;;4204270;34;20138;-49
2021/03/26 11:09:34;;;;;;;5.40;3.50;;;;;;;;;;4183159;34;20168;-51
2021/03/26 11:12:12;;;;;;;6.55;4.03;;;;;;;;;;4180616;34;20465;-52
2021/03/26 11:14:57;;;;;;;5.45;3.83;;;;;;;;;;4191580;34;20449;-55
2021/03/26 11:17:56;;;;;;;5.95;4.28;;;;;;;;;;4191735;34;20183;-48
2021/03/26 11:20:33;;;;;;;8.40;4.05;;;;;;;;;;4204353;34;20529;-49
2021/03/26 11:23:24;;;;;;;4.32;3.45;;;;;;;;;;4204542;34;20102;-49
2021/03/26 11:26:15;;;;;;;6.82;3.83;;;;;;;;;;4181845;34;20118;-51
2021/03/26 11:29:03;;;;;;;4.85;3.70;;;;;;;;;;4191752;34;20089;-48
2021/03/26 11:32:21;;;;;;;5.47;4.05;;;;;;;;;;4191367;34;20102;-56
2021/03/26 11:34:55;;;;;;;8.95;3.80;;;;;;;;;;4173164;34;20259;-50
2021/03/26 11:37:23;;;;;;;5.80;4.07;;;;;;;;;;4206313;34;20224;-51
2021/03/26 11:40:07;;;;;;;5.32;4.03;;;;;;;;;;4193619;34;20128;-55
2021/03/26 11:42:37;;;;;;;5.78;3.45;;;;;;;;;;4206514;34;20141;-52
2021/03/26 11:45:16;;;;;;;4.57;3.20;;;;;;;;;;4193654;34;20592;-53
2021/03/26 11:47:43;;;;;;;3.85;3.15;;;;;;;;;;4193387;34;20098;-52
2021/03/26 11:50:50;;;;;;;3.92;2.90;;;;;;;;;;4206461;34;20102;-50
2021/03/26 11:53:26;;;;;;;6.12;3.80;;;;;;;;;;4187256;34;20189;-55
2021/03/26 11:56:24;;;;;;;4.35;3.33;;;;;;;;;;4206058;34;20128;-48
2021/03/26 11:59:08;;;;;;;5.95;4.35;;;;;;;;;;4182182;34;20129;-48
2021/03/26 12:01:57;;;;;;;5.57;3.90;;;;;;;;;;4193384;34;20128;-50
2021/03/26 12:04:36;;;;;;;6.37;4.70;;;;;;;;;;4182794;34;20105;-50
2021/03/26 12:07:18;;;;;;;6.32;3.92;;;;;;;;;;4193281;34;20113;-53
2021/03/26 12:10:03;;;;;;;5.35;4.18;;;;;;;;;;4182376;34;20121;-50
2021/03/26 12:13:14;;;;;;;6.15;3.83;;;;;;;;;;4183410;34;20532;-54
2021/03/26 12:15:57;;;;;;;7.00;3.78;;;;;;;;;;4166607;34;20449;-54
2021/03/26 12:18:28;;;;;;;5.10;3.70;;;;;;;;;;4206051;34;20170;-48
2021/03/26 12:21:11;;;;;;;5.70;4.12;;;;;;;;;;4181971;34;20125;-50
2021/03/26 12:23:45;;;;;;;5.30;4.07;;;;;;;;;;4170626;34;20246;-50
2021/03/26 12:26:29;;;;;;;5.05;4.07;;;;;;;;;;4193576;34;20209;-47
2021/03/26 12:28:55;;;;;;;5.05;3.97;;;;;;;;;;4193283;34;20140;-47
2021/03/26 12:31:38;;;;;;;5.85;3.70;;;;;;;;;;4205649;34;20130;-51
2021/03/26 12:34:27;;;;;;;7.03;4.00;;;;;;;;;;4171490;34;20232;-50
2021/03/26 12:36:59;;;;;;;8.00;5.18;;;;;;;;;;4206000;34;20109;-50
2021/03/26 12:39:35;;;;;;;6.57;5.07;;;;;;;;;;4193150;34;20505;-48
2021/03/26 12:42:13;;;;;;;7.80;5.15;;;;;;;;;;4205843;34;20240;-48
2021/03/26 12:44:43;;;;;;;8.50;4.30;;;;;;;;;;4181821;34;20140;-53
2021/03/26 12:47:16;;;;;;;4.70;3.80;;;;;;;;;;4181154;34;20482;-49
2021/03/26 12:49:51;;;;;;;6.68;4.25;;;;;;;;;;4205637;34;20532;-55
2021/03/26 12:52:33;;;;;;;6.10;3.78;;;;;;;;;;4205687;34;20125;-49
2021/03/26 12:55:22;;;;;;;8.65;4.47;;;;;;;;;;4205758;34;20425;-47
2021/03/26 12:58:10;;;;;;;6.80;4.22;;;;;;;;;;4182766;34;20125;-53
2021/03/26 13:01:07;;;;;;;10.75;4.30;;;;;;;;;;4183041;34;20128;-49
2021/03/26 13:03:38;;;;;;;7.68;4.40;;;;;;;;;;4192982;34;20114;-49
2021/03/26 13:06:12;;;;;;;7.57;4.78;;;;;;;;;;4205038;34;20137;-53
2021/03/26 13:08:41;;;;;;;8.57;6.22;;;;;;;;;;4193045;34;20120;-48
2021/03/26 13:11:19;;;;;;;7.60;6.10;;;;;;;;;;4192893;34;20110;-47
2021/03/26 13:13:54;;;;;;;8.10;5.12;;;;;;;;;;4192818;34;20109;-49
2021/03/26 13:16:30;;;;;;;7.95;4.85;;;;;;;;;;4205573;34;20495;-44
2021/03/26 13:18:57;;;;;;;7.80;4.70;;;;;;;;;;4193668;34;20109;-44
2021/03/26 13:21:26;;;;;;;6.20;4.55;;;;;;;;;;4205727;34;20223;-54
2021/03/26 13:24:07;;;;;;;7.30;4.70;;;;;;;;;;4205528;34;20445;-48
2021/03/26 13:26:33;;;;;;;8.88;4.97;;;;;;;;;;4192639;34;20129;-47
2021/03/26 13:29:03;;;;;;;7.90;4.80;;;;;;;;;;4181597;34;20113;-50
2021/03/26 13:31:35;;;;;;;7.03;4.47;;;;;;;;;;4181363;34;20121;-49
2021/03/26 13:34:09;;;;;;;9.55;4.78;;;;;;;;;;4193234;34;20518;-50
2021/03/26 13:36:41;;;;;;;6.60;4.07;;;;;;;;;;4193101;34;20192;-47
2021/03/26 13:39:21;;;;;;;6.62;3.95;;;;;;;;;;4192627;34;20185;-48
2021/03/26 13:41:58;;;;;;;4.32;3.92;;;;;;;;;;4192621;34;20112;-46
2021/03/26 13:44:31;;;;;;;6.78;4.30;;;;;;;;;;4192798;34;20131;-46
2021/03/26 13:47:11;;;;;;;4.72;3.80;;;;;;;;;;4193037;34;20470;-51
2021/03/26 13:50:11;;;;;;;7.60;4.68;;;;;;;;;;4181960;34;20548;-52
2021/03/26 13:53:21;;;;;;;6.12;5.37;;;;;;;;;;4186724;34;20100;-50
2021/03/26 13:55:50;;;;;;;6.82;4.62;;;;;;;;;;4160986;34;20528;-46
2021/03/26 13:58:21;;;;;;;7.03;3.97;;;;;;;;;;4181022;34;20126;-48
2021/03/26 14:00:54;;;;;;;8.30;4.97;;;;;;;;;;4204145;34;20118;-49
2021/03/26 14:03:21;;;;;;;13.23;7.20;;;;;;;;;;4205312;34;20117;-50
2021/03/26 14:06:03;;;;;;;11.48;5.25;;;;;;;;;;4205145;34;20453;-47
2021/03/26 14:08:45;;;;;;;10.30;6.22;;;;;;;;;;4192411;34;20110;-51
2021/03/26 14:11:18;;;;;;;10.15;7.47;;;;;;;;;;4205085;34;20556;-55
2021/03/26 14:13:58;;;;;;;12.77;8.73;;;;;;;;;;4205408;34;20542;-56
2021/03/26 14:16:28;;;;;;;12.65;6.95;;;;;;;;;;4205413;34;20201;-50
2021/03/26 14:19:03;;;;;;;7.78;4.95;;;;;;;;;;4181373;34;20209;-56
2021/03/26 14:21:48;;;;;;;;;;;;;;;;;;4193117;34;20129;-53
2021/03/26 14:24:34;;;;;;;12.93;9.07;;;;;;;;;;4205124;34;20048;-54
2021/03/26 14:27:03;;;;;;;12.95;8.23;;;;;;;;;;4192247;34;20156;-51
2021/03/26 14:29:36;;;;;;;8.73;7.43;;;;;;;;;;4205150;34;20227;-56
2021/03/26 14:32:10;;;;;;;6.62;5.12;;;;;;;;;;4192205;34;20094;-49
2021/03/26 14:34:50;;;;;;;7.00;5.15;;;;;;;;;;4192077;34;20094;-46
2021/03/26 14:37:28;;;;;;;8.00;6.30;;;;;;;;;;4192073;34;20526;-52
2021/03/26 14:39:54;;;;;;;5.47;4.87;;;;;;;;;;4180544;34;20450;-49
2021/03/26 14:42:41;;;;;;;7.60;4.57;;;;;;;;;;4204983;34;20196;-47
2021/03/26 14:45:21;;;;;;;9.00;5.00;;;;;;;;;;4194144;34;20102;-47
2021/03/26 14:47:47;;;;;;;8.05;4.37;;;;;;;;;;4180838;34;20442;-53
2021/03/26 14:50:20;;;;;;;4.80;4.30;;;;;;;;;;4204939;34;20258;-46
2021/03/26 14:52:46;;;;;;;6.28;4.40;;;;;;;;;;4192012;34;20213;-52
2021/03/26 14:55:12;;;;;;;7.57;4.28;;;;;;;;;;4204500;34;20113;-50
2021/03/26 14:58:01;;;;;;;6.30;4.32;;;;;;;;;;4204670;34;20113;-56
2021/03/26 15:00:53;;;;;;;5.03;4.45;;;;;;;;;;4204821;34;20110;-51
2021/03/26 15:03:43;;;;;;;7.45;4.00;;;;;;;;;;4198576;34;20532;-56
2021/03/26 15:06:27;;;;;;;4.30;3.42;;;;;;;;;;4204302;34;20544;-53
2021/03/26 15:09:00;;;;;;;5.15;3.17;;;;;;;;;;4204811;34;20102;-54
2021/03/26 15:11:32;;;;;;;7.00;3.15;;;;;;;;;;4205437;34;20151;-47
2021/03/26 15:14:11;;;;;;;4.32;3.15;;;;;;;;;;4206969;34;20715;-50
2021/03/26 15:16:49;;;;;;;6.87;4.15;;;;;;;;;;4183289;34;20105;-49
2021/03/26 15:19:20;;;;;;;6.12;3.90;;;;;;;;;;4206661;34;20133;-46
2021/03/26 15:22:07;;;;;;;10.85;3.87;;;;;;;;;;4206572;34;20102;-48
2021/03/26 15:24:53;;;;;;;5.72;3.75;;;;;;;;;;4195543;34;20145;-50
2021/03/26 15:27:31;;;;;;;;;;;;;;;;;;4194664;34;20113;-53
2021/03/26 15:30:16;;;;;;;7.57;5.43;;;;;;;;;;4206642;34;20054;-50
2021/03/26 15:32:55;;;;;;;6.65;4.75;;;;;;;;;;4184015;34;20082;-49
2021/03/26 15:35:54;;;;;;;6.00;4.10;;;;;;;;;;4182606;34;20193;-46
2021/03/26 15:38:21;;;;;;;6.90;4.57;;;;;;;;;;4193579;34;20122;-48
2021/03/26 15:40:52;;;;;;;5.05;4.18;;;;;;;;;;4193403;34;20113;-48
2021/03/26 15:43:19;;;;;;;9.15;5.40;;;;;;;;;;4193780;34;20520;-48
2021/03/26 15:45:57;;;;;;;6.90;4.50;;;;;;;;;;4206294;34;20106;-50